Time;durP1;ratioP1;P1;durP2;ratioP2;P2;SDS_P1;SDS_P2;PMS_P1;PMS_P2;Temp;Humidity;BMP_temperature;BMP_pressure;BME280_temperature;BME280_humidity;BME280_pressure;Samples;Min_cycle;Max_cycle;Signal;HPM_P1;HPM_P2
2020/12/23 00:00:22;;;;;;;9.70;3.47;;;;;;;7.76;82.55;100421.23;1730541;82;21188;-77
2020/12/23 00:02:52;;;;;;;11.05;6.60;;;;;;;7.78;82.59;100434.34;1728003;82;21663;-77
2020/12/23 00:05:19;;;;;;;10.80;2.95;;;;;;;7.81;82.63;100439.38;1721480;83;21179;-77
2020/12/23 00:07:46;;;;;;;5.75;2.60;;;;;;;7.85;82.62;100436.25;1713772;83;21744;-77
2020/12/23 00:10:14;;;;;;;3.98;2.15;;;;;;;7.89;82.63;100420.84;1721793;81;21183;-76
2020/12/23 00:12:42;;;;;;;9.93;7.15;;;;;;;7.86;82.64;100410.53;1723711;81;21187;-77
2020/12/23 00:15:09;;;;;;;9.78;6.40;;;;;;;7.81;82.66;100400.36;1736640;81;21190;-77
2020/12/23 00:17:37;;;;;;;12.28;7.90;;;;;;;7.75;82.64;100389.52;1722188;81;21190;-77
2020/12/23 00:20:05;;;;;;;8.58;3.90;;;;;;;7.70;82.66;100389.16;1725645;81;21195;-77
2020/12/23 00:22:32;;;;;;;5.97;3.40;;;;;;;7.69;82.66;100388.81;1722276;81;21685;-76
2020/12/23 00:24:59;;;;;;;5.72;2.75;;;;;;;7.67;82.65;100394.78;1729254;81;21211;-76
2020/12/23 00:27:27;;;;;;;7.22;3.22;;;;;;;7.65;82.63;100398.06;1753740;81;21224;-76
2020/12/23 00:29:54;;;;;;;5.80;2.60;;;;;;;7.61;82.62;100394.03;1754030;81;21203;-76
2020/12/23 00:32:22;;;;;;;7.72;3.60;;;;;;;7.58;82.63;100393.85;1754259;81;21749;-76
2020/12/23 00:34:49;;;;;;;9.95;4.20;;;;;;;7.56;82.62;100393.67;1754446;81;21199;-76
2020/12/23 00:37:16;;;;;;;8.00;4.17;;;;;;;7.52;82.59;100392.65;1754509;81;21635;-76
2020/12/23 00:39:43;;;;;;;9.38;3.05;;;;;;;7.50;82.61;100395.92;1754605;80;21187;-76
2020/12/23 00:42:11;;;;;;;13.78;7.95;;;;;;;7.48;82.58;100403.22;1754403;81;21171;-76
2020/12/23 00:44:38;;;;;;;8.80;4.40;;;;;;;7.45;82.57;100407.50;1754305;81;21199;-76
2020/12/23 00:47:05;;;;;;;8.88;5.15;;;;;;;7.43;82.57;100397.51;1754389;81;21167;-76
2020/12/23 00:49:32;;;;;;;5.92;4.10;;;;;;;7.43;82.57;100400.16;1754065;81;21215;-76
2020/12/23 00:52:00;;;;;;;3.95;2.77;;;;;;;7.42;82.56;100415.73;1756405;80;21644;-76
2020/12/23 00:54:27;;;;;;;4.53;2.70;;;;;;;7.38;82.53;100412.22;1778448;80;22004;-76
2020/12/23 00:56:54;;;;;;;5.80;2.60;;;;;;;7.36;82.53;100405.72;1764468;80;21182;-76
2020/12/23 00:59:21;;;;;;;8.50;4.50;;;;;;;7.36;82.53;100408.38;1747568;82;21166;-76
2020/12/23 01:01:49;;;;;;;10.32;4.67;;;;;;;7.36;82.52;100416.33;1773031;80;21124;-75
2020/12/23 01:04:16;;;;;;;7.45;3.50;;;;;;;7.37;82.50;100426.45;1785800;80;21621;-76
2020/12/23 01:06:43;;;;;;;8.33;3.75;;;;;;;7.36;82.45;100431.41;1786543;80;21191;-77
2020/12/23 01:09:10;;;;;;;8.50;2.90;;;;;;;7.34;82.45;100436.88;1786176;80;21179;-76
2020/12/23 01:11:38;;;;;;;5.33;2.47;;;;;;;7.34;82.44;100431.58;1776598;78;21212;-77
2020/12/23 01:14:07;;;;;;;6.47;2.65;;;;;;;7.35;82.40;100438.53;1755628;81;21153;-77
2020/12/23 01:16:34;;;;;;;7.27;2.63;;;;;;;7.38;82.37;100438.27;1769631;80;21148;-77
2020/12/23 01:19:02;;;;;;;6.83;2.75;;;;;;;7.41;82.34;100446.41;1754461;81;21201;-77
2020/12/23 01:21:29;;;;;;;8.13;3.37;;;;;;;7.40;82.31;100457.51;1778535;80;21498;-76
2020/12/23 01:23:57;;;;;;;3.85;1.75;;;;;;;7.38;82.29;100470.09;1785989;80;21171;-77
2020/12/23 01:26:24;;;;;;;3.52;1.80;;;;;;;7.38;82.27;100463.95;1751274;81;21143;-78
2020/12/23 01:28:51;;;;;;;9.10;4.25;;;;;;;7.38;82.25;100471.91;1747398;81;21145;-77
2020/12/23 01:31:18;;;;;;;5.40;2.70;;;;;;;7.39;82.25;100463.78;1728718;82;21184;-77
2020/12/23 01:33:46;;;;;;;5.80;4.00;;;;;;;7.41;82.20;100467.14;1699951;84;21184;-77
2020/12/23 01:36:14;;;;;;;8.78;5.08;;;;;;;7.42;82.17;100466.14;1733275;82;21175;-77
2020/12/23 01:38:41;;;;;;;5.90;3.70;;;;;;;7.42;82.15;100464.81;1732948;82;21588;-77
2020/12/23 01:41:08;;;;;;;6.87;2.20;;;;;;;7.43;82.09;100453.72;1733258;81;21227;-77
2020/12/23 01:43:37;;;;;;;5.40;2.20;;;;;;;7.43;82.08;100451.90;1732818;82;21171;-77
2020/12/23 01:46:04;;;;;;;3.52;1.15;;;;;;;7.44;82.05;100456.23;1748372;81;21240;-77
2020/12/23 01:48:32;;;;;;;4.80;1.50;;;;;;;7.43;81.99;100457.20;1748793;82;21716;-77
2020/12/23 01:51:02;;;;;;;2.92;1.57;;;;;;;7.45;81.98;100455.26;1748638;81;21185;-77
2020/12/23 01:53:30;;;;;;;2.47;1.42;;;;;;;7.43;81.94;100449.25;1748794;82;21157;-77
2020/12/23 01:55:58;;;;;;;4.10;1.92;;;;;;;7.44;81.93;100453.58;1748729;82;21193;-77
2020/12/23 01:58:25;;;;;;;4.90;2.45;;;;;;;7.43;81.92;100465.16;1748686;82;21716;-77
2020/12/23 02:00:53;;;;;;;5.28;2.33;;;;;;;7.41;81.90;100463.16;1748434;82;21180;-77
2020/12/23 02:03:21;;;;;;;9.65;3.33;;;;;;;7.41;81.87;100471.61;1748799;82;21962;-77
2020/12/23 02:05:48;;;;;;;6.83;2.10;;;;;;;7.41;81.85;100469.80;1735156;81;21201;-77
2020/12/23 02:08:16;;;;;;;4.95;1.62;;;;;;;7.40;81.83;100473.42;1755550;81;21175;-76
2020/12/23 02:10:43;;;;;;;4.45;1.80;;;;;;;7.40;81.81;100465.47;1742025;81;21219;-76
2020/12/23 02:13:10;;;;;;;7.40;3.17;;;;;;;7.41;81.81;100459.67;1709614;82;21673;-76
2020/12/23 02:15:38;;;;;;;6.22;2.30;;;;;;;7.39;81.80;100463.78;1672952;84;21722;-76
2020/12/23 02:18:05;;;;;;;7.30;2.90;;;;;;;7.36;81.78;100462.76;1698432;84;21223;-77
2020/12/23 02:20:32;;;;;;;6.08;2.00;;;;;;;7.33;81.78;100464.39;1719766;83;21175;-76
2020/12/23 02:22:59;;;;;;;7.33;2.25;;;;;;;7.31;81.77;100471.67;1702566;84;21219;-76
2020/12/23 02:25:28;;;;;;;11.30;3.33;;;;;;;7.30;81.74;100468.66;1695469;84;21160;-76
2020/12/23 02:27:55;;;;;;;13.18;7.00;;;;;;;7.30;81.78;100468.66;1721266;83;21219;-76
2020/12/23 02:30:23;;;;;;;10.63;5.97;;;;;;;7.28;81.76;100467.95;1719820;83;21213;-75
2020/12/23 02:32:51;;;;;;;12.63;5.65;;;;;;;7.30;81.76;100464.69;1720594;83;21683;-76
2020/12/23 02:35:18;;;;;;;11.43;3.58;;;;;;;7.30;81.77;100459.38;1729477;81;21652;-76
2020/12/23 02:37:45;;;;;;;9.93;3.12;;;;;;;7.30;81.76;100467.34;1726880;81;21159;-76
2020/12/23 02:40:13;;;;;;;7.22;2.87;;;;;;;7.29;81.77;100463.00;1726271;82;21193;-76
2020/12/23 02:42:40;;;;;;;4.70;2.40;;;;;;;7.29;81.77;100456.38;1707367;84;21219;-76
2020/12/23 02:45:07;;;;;;;15.35;5.37;;;;;;;7.28;81.75;100445.41;1726064;82;21183;-76
2020/12/23 02:47:34;;;;;;;18.42;6.20;;;;;;;7.29;81.75;100445.77;1726293;83;21187;-76
2020/12/23 02:50:02;;;;;;;11.63;4.60;;;;;;;7.28;81.76;100442.75;1726370;83;21187;-76
2020/12/23 02:52:29;;;;;;;9.60;4.72;;;;;;;7.28;81.74;100440.63;1726135;82;21190;-76
2020/12/23 02:54:56;;;;;;;4.10;3.35;;;;;;;7.26;81.75;100436.78;1726148;83;21195;-76
2020/12/23 02:57:23;;;;;;;9.55;2.85;;;;;;;7.25;81.76;100444.38;1726213;83;21957;-76
2020/12/23 02:59:51;;;;;;;8.63;4.45;;;;;;;7.23;81.77;100447.69;1725742;83;21171;-76
2020/12/23 03:02:18;;;;;;;7.65;4.90;;;;;;;7.21;81.76;100448.34;1726158;83;21199;-76
2020/12/23 03:04:45;;;;;;;9.10;4.00;;;;;;;7.20;81.76;100450.64;1722796;83;21161;-76
2020/12/23 03:07:13;;;;;;;6.25;3.20;;;;;;;7.22;81.78;100447.82;1721694;83;21185;-76
2020/12/23 03:09:40;;;;;;;8.08;4.50;;;;;;;7.20;81.75;100455.94;1721518;83;21223;-76
2020/12/23 03:12:07;;;;;;;10.03;7.83;;;;;;;7.20;81.79;100458.59;1723246;83;21169;-76
2020/12/23 03:14:34;;;;;;;14.93;11.53;;;;;;;7.18;81.78;100455.23;1723198;82;21173;-76
2020/12/23 03:17:02;;;;;;;19.55;16.62;;;;;;;7.18;81.81;100461.86;1723106;83;21949;-75
2020/12/23 03:19:29;;;;;;;13.00;10.40;;;;;;;7.19;81.83;100467.52;1723230;83;21161;-76
2020/12/23 03:21:56;;;;;;;11.88;7.03;;;;;;;7.18;81.82;100454.42;1723185;83;21162;-75
2020/12/23 03:24:26;;;;;;;11.22;4.78;;;;;;;7.18;81.80;100459.73;1723158;83;21200;-76
2020/12/23 03:26:53;;;;;;;12.57;5.10;;;;;;;7.17;81.80;100466.01;1722668;81;21178;-76
2020/12/23 03:29:20;;;;;;;6.28;2.33;;;;;;;7.16;81.83;100473.12;1720886;83;21522;-75
2020/12/23 03:31:47;;;;;;;5.12;2.33;;;;;;;7.16;81.84;100480.24;1722406;83;21181;-76
2020/12/23 03:34:15;;;;;;;6.03;1.90;;;;;;;7.15;81.83;100470.12;1722311;83;21180;-76
2020/12/23 03:36:42;;;;;;;4.08;1.95;;;;;;;7.12;81.83;100473.07;1722302;83;21209;-76
2020/12/23 03:39:10;;;;;;;4.95;2.75;;;;;;;7.12;81.87;100466.44;1722200;83;21594;-75
2020/12/23 03:41:37;;;;;;;6.47;5.60;;;;;;;7.14;81.89;100467.14;1720640;83;21204;-76
2020/12/23 03:44:04;;;;;;;9.15;5.53;;;;;;;7.13;81.93;100468.12;1722178;83;21157;-76
2020/12/23 03:46:31;;;;;;;11.50;5.45;;;;;;;7.12;81.95;100469.09;1722302;83;21513;-75
2020/12/23 03:48:59;;;;;;;10.28;5.53;;;;;;;7.11;81.98;100464.76;1722244;83;21197;-76
2020/12/23 03:51:26;;;;;;;14.87;6.28;;;;;;;7.10;81.98;100465.77;1722440;83;21169;-76
2020/12/23 03:53:53;;;;;;;8.88;5.05;;;;;;;7.07;82.00;100475.34;1720800;83;21609;-76
2020/12/23 03:56:20;;;;;;;22.93;16.73;;;;;;;7.04;82.01;100479.58;1722431;83;21149;-76
2020/12/23 03:58:48;;;;;;;15.70;9.98;;;;;;;7.03;82.03;100475.28;1716097;83;21183;-76
2020/12/23 04:01:15;;;;;;;11.68;4.97;;;;;;;7.04;82.06;100470.30;1724983;82;21227;-76
2020/12/23 04:03:42;;;;;;;3.42;2.17;;;;;;;7.06;82.08;100464.37;1715569;83;21236;-76
2020/12/23 04:06:09;;;;;;;4.33;2.90;;;;;;;7.11;82.11;100470.06;1707002;84;21569;-76
2020/12/23 04:08:37;;;;;;;6.28;3.02;;;;;;;7.09;82.13;100473.36;1707239;84;21251;-76
2020/12/23 04:11:05;;;;;;;10.20;4.92;;;;;;;7.05;82.15;100471.98;1707170;84;21658;-76
2020/12/23 04:13:32;;;;;;;26.57;10.20;;;;;;;7.03;82.19;100471.30;1706881;84;21661;-76
2020/12/23 04:15:59;;;;;;;20.00;8.58;;;;;;;7.02;82.19;100482.88;1707236;84;21602;-76
2020/12/23 04:18:27;;;;;;;20.72;9.80;;;;;;;6.99;82.22;100491.97;1707235;84;21664;-76
2020/12/23 04:20:54;;;;;;;19.05;12.88;;;;;;;6.98;82.25;100495.59;1707343;84;21145;-76
2020/12/23 04:23:21;;;;;;;12.95;8.50;;;;;;;6.97;82.28;100497.89;1707317;84;21768;-76
2020/12/23 04:25:48;;;;;;;9.70;5.97;;;;;;;6.94;82.28;100485.41;1728424;81;21230;-76
2020/12/23 04:28:16;;;;;;;7.85;4.83;;;;;;;7.01;82.33;100474.58;1760107;81;21160;-76
2020/12/23 04:30:45;;;;;;;4.80;4.20;;;;;;;7.06;82.37;100476.31;1760229;81;21244;-76
2020/12/23 04:33:12;;;;;;;9.33;3.40;;;;;;;7.16;82.37;100478.43;1760419;81;21189;-76
2020/12/23 04:35:39;;;;;;;4.60;2.58;;;;;;;7.16;82.37;100476.27;1759992;81;21860;-76
2020/12/23 04:38:07;;;;;;;4.53;2.00;;;;;;;7.26;82.41;100477.05;1760248;81;21188;-76
2020/12/23 04:40:34;;;;;;;3.25;1.70;;;;;;;7.34;82.42;100476.67;1760055;81;21178;-76
2020/12/23 04:43:01;;;;;;;6.85;2.50;;;;;;;7.42;82.43;100487.36;1759983;81;21253;-76
2020/12/23 04:45:28;;;;;;;11.35;5.75;;;;;;;7.50;82.44;100490.12;1759853;81;21598;-76
2020/12/23 04:47:56;;;;;;;12.23;6.10;;;;;;;7.58;82.44;100485.89;1760220;81;21983;-76
2020/12/23 04:50:23;;;;;;;13.28;5.60;;;;;;;7.64;82.43;100482.15;1760121;81;21153;-76
2020/12/23 04:52:51;;;;;;;28.98;13.78;;;;;;;7.55;82.44;100488.36;1760188;81;21134;-76
2020/12/23 04:55:18;;;;;;;29.80;12.05;;;;;;;7.44;82.45;100490.72;1760226;81;21197;-76
2020/12/23 04:57:47;;;;;;;42.38;15.70;;;;;;;7.38;82.49;100488.67;1759989;81;21650;-76
2020/12/23 05:00:14;;;;;;;56.30;23.15;;;;;;;7.45;82.52;100489.75;1709961;81;21882;-75
2020/12/23 05:02:41;;;;;;;58.20;21.45;;;;;;;7.53;82.48;100477.88;1760120;81;21196;-76
2020/12/23 05:05:09;;;;;;;50.73;21.27;;;;;;;7.55;82.47;100476.42;1760362;81;21571;-76
2020/12/23 05:07:36;;;;;;;54.13;22.00;;;;;;;7.61;82.50;100484.27;1760341;81;21126;-76
2020/12/23 05:10:06;;;;;;;56.33;20.02;;;;;;;7.67;82.50;100482.37;1760058;81;21128;-76
2020/12/23 05:12:33;;;;;;;36.83;13.98;;;;;;;7.67;82.49;100491.66;1760504;81;21559;-76
2020/12/23 05:15:06;;;;;;;42.30;15.85;;;;;;;7.64;82.47;100491.92;1760109;81;21143;-76
2020/12/23 05:17:33;;;;;;;20.72;10.53;;;;;;;7.69;82.47;100494.98;1760334;80;21214;-76
2020/12/23 05:20:01;;;;;;;23.22;10.43;;;;;;;7.72;82.47;100494.19;1760191;81;21123;-76
2020/12/23 05:22:28;;;;;;;20.80;9.35;;;;;;;7.73;82.42;100493.70;1760455;81;21127;-76
2020/12/23 05:24:56;;;;;;;19.12;6.40;;;;;;;7.74;82.39;100491.40;1760310;81;21130;-76
2020/12/23 05:27:23;;;;;;;14.90;6.20;;;;;;;7.65;82.38;100484.31;1768784;80;21156;-76
2020/12/23 05:29:50;;;;;;;11.18;4.60;;;;;;;7.67;82.38;100489.81;1769534;81;21137;-76
2020/12/23 05:32:18;;;;;;;11.65;5.08;;;;;;;7.69;82.36;100488.34;1748239;82;21180;-76
2020/12/23 05:34:48;;;;;;;14.93;7.03;;;;;;;7.64;82.36;100487.95;1748410;82;21199;-75
2020/12/23 05:37:19;;;;;;;12.70;6.05;;;;;;;7.51;82.38;100491.80;1783311;80;23176;-76
2020/12/23 05:39:47;;;;;;;17.17;8.40;;;;;;;7.46;82.42;100494.05;1748467;80;21585;-76
2020/12/23 05:42:14;;;;;;;22.32;8.08;;;;;;;7.47;82.42;100493.08;1748541;82;21124;-76
2020/12/23 05:44:44;;;;;;;18.12;8.28;;;;;;;7.43;82.37;100490.86;1748265;82;21203;-76
2020/12/23 05:47:11;;;;;;;22.93;8.65;;;;;;;7.43;82.39;100491.70;1717811;82;21152;-76
2020/12/23 05:49:39;;;;;;;17.90;7.47;;;;;;;7.43;82.40;100481.57;1731738;81;21200;-76
2020/12/23 05:52:06;;;;;;;17.75;7.85;;;;;;;7.32;82.37;100489.23;1761556;81;21193;-76
2020/12/23 05:54:33;;;;;;;20.50;8.88;;;;;;;7.37;82.40;100486.15;1761557;81;21148;-76
2020/12/23 05:57:02;;;;;;;14.58;7.40;;;;;;;7.48;82.40;100476.18;1716997;82;22109;-75
2020/12/23 05:59:29;;;;;;;22.62;9.95;;;;;;;7.40;82.37;100477.89;1717003;82;21152;-76
2020/12/23 06:01:57;;;;;;;21.45;11.20;;;;;;;7.37;82.41;100479.03;1748524;82;21172;-75
2020/12/23 06:04:24;;;;;;;28.20;11.68;;;;;;;7.38;82.42;100477.22;1786384;80;21144;-76
2020/12/23 06:06:52;;;;;;;26.10;13.28;;;;;;;7.42;82.43;100479.41;1787493;80;21171;-76
2020/12/23 06:09:20;;;;;;;18.50;9.08;;;;;;;7.37;82.43;100476.86;1787585;80;21643;-76
2020/12/23 06:11:57;;;;;;;17.12;8.30;;;;;;;7.38;82.45;100486.02;1787680;80;21161;-76
2020/12/23 06:14:24;;;;;;;14.60;7.85;;;;;;;7.39;82.42;100486.82;1751065;80;21605;-76
2020/12/23 06:17:20;;;;;;;13.45;7.47;;;;;;;7.35;82.44;100481.50;1787593;80;21226;-76
2020/12/23 06:19:49;;;;;;;13.60;6.85;;;;;;;7.26;82.44;100489.83;1664652;85;21184;-76
2020/12/23 06:22:17;;;;;;;10.50;5.50;;;;;;;7.16;82.46;100493.02;1666439;86;21660;-76
2020/12/23 06:24:44;;;;;;;11.90;8.23;;;;;;;7.08;82.48;100488.92;1667643;86;21616;-76
2020/12/23 06:27:11;;;;;;;9.35;5.62;;;;;;;7.13;82.50;100494.64;1666409;86;22007;-76
2020/12/23 06:29:41;;;;;;;9.08;5.22;;;;;;;7.19;82.49;100496.70;1666024;86;21195;-76
2020/12/23 06:32:19;;;;;;;11.85;5.42;;;;;;;7.19;82.46;100496.70;1666459;86;21585;-76
2020/12/23 06:34:57;;;;;;;13.13;5.97;;;;;;;7.23;82.48;100492.77;1666246;84;21222;-76
2020/12/23 06:37:28;;;;;;;15.58;7.28;;;;;;;7.24;82.52;100493.62;1666078;84;21176;-76
2020/12/23 06:39:55;;;;;;;15.88;6.95;;;;;;;7.22;82.53;100492.42;1664517;86;21212;-76
2020/12/23 06:42:28;;;;;;;18.55;8.90;;;;;;;7.11;82.54;100501.88;1638805;86;21225;-76
2020/12/23 06:44:58;;;;;;;14.30;7.60;;;;;;;7.03;82.56;100500.47;1639026;86;21228;-76
2020/12/23 06:47:28;;;;;;;12.03;7.33;;;;;;;7.02;82.59;100499.62;1638650;86;21180;-76
2020/12/23 06:50:13;;;;;;;11.83;6.80;;;;;;;7.02;82.60;100500.11;1636813;86;21176;-76
2020/12/23 06:52:42;;;;;;;16.95;8.08;;;;;;;6.96;82.60;100498.05;1667122;84;21542;-76
2020/12/23 06:55:12;;;;;;;;;;;;;;;6.99;82.63;100500.41;1669374;85;21176;-76
2020/12/23 06:57:45;;;;;;;14.40;7.95;;;;;;;7.03;82.64;100500.47;1666759;85;20275;-76
2020/12/23 07:00:28;;;;;;;22.52;9.65;;;;;;;6.95;82.66;100498.53;1666914;86;21160;-75
2020/12/23 07:03:04;;;;;;;17.65;7.40;;;;;;;6.95;82.68;100497.70;1666772;84;21129;-76
2020/12/23 07:05:38;;;;;;;25.62;9.33;;;;;;;7.01;82.68;100501.92;1665595;86;21213;-76
2020/12/23 07:08:07;;;;;;;21.97;9.60;;;;;;;7.08;82.67;100507.48;1665416;86;21606;-76
2020/12/23 07:10:40;;;;;;;30.20;13.13;;;;;;;7.07;82.66;100505.83;1671637;84;21582;-75
2020/12/23 07:13:13;;;;;;;29.10;10.05;;;;;;;7.04;82.69;100506.09;1662260;86;21590;-77
2020/12/23 07:15:46;;;;;;;27.75;11.33;;;;;;;7.05;82.75;100509.09;1666550;86;21576;-75
2020/12/23 07:18:29;;;;;;;26.00;11.50;;;;;;;7.16;82.78;100509.41;1777937;79;27892;-77
2020/12/23 07:21:04;;;;;;;27.60;12.43;;;;;;;7.24;82.74;100519.66;1765281;81;21183;-76
2020/12/23 07:23:32;;;;;;;26.97;12.33;;;;;;;7.33;82.70;100527.20;1758208;80;21198;-76
2020/12/23 07:26:02;;;;;;;27.87;12.58;;;;;;;7.36;82.74;100530.41;1765232;80;21171;-75
2020/12/23 07:28:38;;;;;;;22.10;10.48;;;;;;;7.40;82.74;100531.80;1765150;81;21159;-75
2020/12/23 07:31:05;;;;;;;25.10;10.75;;;;;;;7.30;82.74;100520.39;1765111;81;21107;-75
2020/12/23 07:33:32;;;;;;;23.77;11.40;;;;;;;7.15;82.73;100520.99;1765414;80;21096;-76
2020/12/23 07:36:01;;;;;;;24.23;10.90;;;;;;;7.03;82.72;100525.66;1765227;81;21159;-76
2020/12/23 07:38:32;;;;;;;29.18;13.62;;;;;;;6.98;82.73;100525.23;1765386;80;21151;-76
2020/12/23 07:40:58;;;;;;;34.48;14.35;;;;;;;6.91;82.72;100525.47;1765165;81;21151;-77
2020/12/23 07:43:25;;;;;;;43.13;17.30;;;;;;;6.88;82.69;100519.97;1765100;81;21266;-77
2020/12/23 07:45:52;;;;;;;37.48;18.32;;;;;;;6.83;82.66;100534.61;1757123;81;21137;-75
2020/12/23 07:48:20;;;;;;;41.37;15.43;;;;;;;6.80;82.63;100537.55;1756868;81;21211;-75
2020/12/23 07:50:55;;;;;;;33.95;15.58;;;;;;;6.77;82.60;100541.81;1740933;81;21169;-75
2020/12/23 07:53:26;;;;;;;36.15;14.53;;;;;;;6.73;82.61;100538.61;1754257;81;21572;-74
2020/12/23 07:56:05;;;;;;;25.10;11.08;;;;;;;6.73;82.59;100536.45;1757140;80;21164;-75
2020/12/23 07:58:34;;;;;;;26.97;10.47;;;;;;;6.70;82.56;100529.63;1757355;81;21119;-75
2020/12/23 08:01:00;;;;;;;27.82;10.75;;;;;;;6.64;82.60;100534.17;1743237;81;22030;-75
2020/12/23 08:03:28;;;;;;;20.05;9.13;;;;;;;6.61;82.64;100538.92;1725557;83;21617;-76
2020/12/23 08:06:11;;;;;;;25.27;7.90;;;;;;;6.60;82.67;100545.19;1744317;81;21219;-75
2020/12/23 08:08:40;;;;;;;22.77;8.10;;;;;;;6.62;82.71;100551.17;1757224;81;21143;-75
2020/12/23 08:11:13;;;;;;;39.83;15.20;;;;;;;6.62;82.74;100551.17;1757225;81;21151;-76
2020/12/23 08:13:41;;;;;;;23.60;11.65;;;;;;;6.66;82.75;100560.52;1757141;81;22096;-76
2020/12/23 08:16:13;;;;;;;40.92;16.95;;;;;;;6.70;82.75;100559.27;1757100;81;21139;-76
2020/12/23 08:18:40;;;;;;;73.20;33.35;;;;;;;6.67;82.79;100559.55;1749252;81;21192;-76
2020/12/23 08:21:17;;;;;;;52.58;20.88;;;;;;;6.63;82.82;100558.99;1723153;81;21155;-76
2020/12/23 08:23:46;;;;;;;45.73;20.05;;;;;;;6.62;82.83;100563.94;1755729;81;21803;-76
2020/12/23 08:26:13;;;;;;;56.75;23.05;;;;;;;6.62;82.82;100563.94;1745008;82;21124;-74
2020/12/23 08:28:42;;;;;;;55.78;25.77;;;;;;;6.63;82.84;100565.62;1756808;81;21152;-80
2020/12/23 08:31:17;;;;;;;73.35;31.97;;;;;;;6.65;82.89;100561.00;1748515;82;21183;-80
2020/12/23 08:33:44;;;;;;;96.57;42.05;;;;;;;6.75;82.92;100557.04;1748506;82;21180;-80
2020/12/23 08:36:11;;;;;;;114.90;53.15;;;;;;;6.84;82.94;100562.80;1748514;80;21144;-80
2020/12/23 08:38:41;;;;;;;109.72;50.67;;;;;;;6.96;82.95;100555.05;1749053;81;21259;-79
2020/12/23 08:41:14;;;;;;;81.08;37.38;;;;;;;7.02;83.00;100555.31;1728534;81;21163;-79
2020/12/23 08:43:46;;;;;;;104.27;44.67;;;;;;;7.01;83.04;100554.11;1729383;82;21122;-79
2020/12/23 08:46:24;;;;;;;95.20;41.60;;;;;;;6.98;83.07;100552.59;1728034;82;21172;-79
2020/12/23 08:48:51;;;;;;;118.40;50.03;;;;;;;7.00;83.08;100552.46;1756525;81;21155;-79
2020/12/23 08:51:25;;;;;;;110.90;46.45;;;;;;;7.01;83.10;100554.11;1748501;82;21204;-79
2020/12/23 08:53:54;;;;;;;101.02;46.18;;;;;;;7.04;83.14;100556.47;1755964;81;21188;-79
2020/12/23 08:59:12;;;;;;;126.47;50.92;;;;;;;7.11;83.12;100548.29;1815107;77;22775;-80
2020/12/23 09:01:38;;;;;;;104.55;41.48;;;;;;;7.09;83.13;100552.91;1788040;80;21096;-80
2020/12/23 09:04:09;;;;;;;73.70;30.90;;;;;;;7.10;83.13;100553.27;1786075;80;21203;-80
2020/12/23 09:06:40;;;;;;;81.32;34.45;;;;;;;7.11;83.14;100553.59;1787888;80;21729;-80
2020/12/23 09:09:09;;;;;;;84.03;34.35;;;;;;;7.13;83.15;100558.28;1782393;80;21142;-80
2020/12/23 09:11:50;;;;;;;65.90;28.55;;;;;;;7.17;83.13;100555.69;1758835;80;21175;-80
2020/12/23 09:14:23;;;;;;;64.58;27.98;;;;;;;7.17;83.14;100549.06;1771462;80;21119;-80
2020/12/23 09:17:08;;;;;;;65.50;28.12;;;;;;;7.10;83.17;100540.02;1756717;81;21935;-79
2020/12/23 09:20:01;;;;;;;63.02;29.25;;;;;;;7.17;83.16;100546.41;1760617;80;21647;-79
2020/12/23 09:22:41;;;;;;;51.00;28.42;;;;;;;7.22;83.15;100546.80;1746054;81;21122;-79
2020/12/23 09:25:29;;;;;;;39.90;21.07;;;;;;;7.24;83.17;100535.57;1765600;80;21131;-79
2020/12/23 09:27:58;;;;;;;33.25;16.90;;;;;;;7.24;83.16;100536.89;1779615;80;21117;-79
2020/12/23 09:30:40;;;;;;;35.83;19.12;;;;;;;7.14;83.20;100536.09;1786578;80;21542;-80
2020/12/23 09:33:20;;;;;;;35.05;19.57;;;;;;;7.07;83.22;100536.33;1786564;80;21162;-79
2020/12/23 09:35:48;;;;;;;;;;;;;;;7.04;83.19;100529.95;1778650;80;21451;-80
2020/12/23 09:38:27;;;;;;;29.10;15.53;;;;;;;7.08;83.16;100528.70;1774714;80;20421;-79
2020/12/23 09:40:56;;;;;;;29.15;14.43;;;;;;;7.11;83.16;100523.62;1773362;80;21166;-79
2020/12/23 09:43:28;;;;;;;34.05;16.65;;;;;;;7.17;83.16;100529.17;1740864;81;21246;-79
2020/12/23 09:45:58;;;;;;;57.35;22.22;;;;;;;7.20;83.15;100530.20;1720986;81;21221;-80
2020/12/23 09:48:26;;;;;;;63.40;24.10;;;;;;;7.24;83.17;100538.22;1727252;81;21632;-80
2020/12/23 09:50:53;;;;;;;51.35;19.57;;;;;;;7.28;83.17;100543.55;1756562;81;21174;-81
2020/12/23 09:53:20;;;;;;;45.78;19.77;;;;;;;7.39;83.14;100539.88;1756713;80;21143;-80
2020/12/23 09:55:47;;;;;;;30.15;13.48;;;;;;;7.44;83.14;100530.52;1738048;81;22187;-79
2020/12/23 09:58:14;;;;;;;28.83;11.73;;;;;;;7.46;83.17;100529.87;1731074;80;21222;-80
2020/12/23 10:00:41;;;;;;;23.83;10.43;;;;;;;7.50;83.18;100529.08;1750374;81;21171;-79
2020/12/23 10:03:08;;;;;;;20.08;9.30;;;;;;;7.48;83.16;100517.31;1749271;81;21196;-79
2020/12/23 10:05:35;;;;;;;30.12;10.08;;;;;;;7.54;83.16;100509.23;1749534;81;21223;-79
2020/12/23 10:08:02;;;;;;;25.72;9.35;;;;;;;7.57;83.12;100500.14;1748494;81;21598;-75
2020/12/23 10:10:29;;;;;;;32.70;12.45;;;;;;;7.54;83.07;100496.81;1750239;81;21146;-75
2020/12/23 10:12:55;;;;;;;29.90;13.78;;;;;;;7.53;83.02;100503.09;1743587;81;21220;-75
2020/12/23 10:15:21;;;;;;;36.15;14.43;;;;;;;7.52;82.99;100499.28;1742377;81;21695;-76
2020/12/23 10:17:48;;;;;;;28.90;10.90;;;;;;;7.51;82.96;100497.11;1730464;82;21147;-76
2020/12/23 10:20:14;;;;;;;35.17;12.13;;;;;;;7.53;82.91;100492.96;1758946;81;21321;-76
2020/12/23 10:22:40;;;;;;;36.13;13.90;;;;;;;7.57;82.91;100488.20;1760489;81;21162;-76
2020/12/23 10:25:08;;;;;;;30.08;13.08;;;;;;;7.56;82.88;100486.55;1758389;81;21183;-75
2020/12/23 10:27:34;;;;;;;27.60;11.33;;;;;;;7.59;82.85;100485.77;1731637;81;21630;-76
2020/12/23 10:30:01;;;;;;;33.05;12.98;;;;;;;7.68;82.78;100491.98;1731693;81;21163;-76
2020/12/23 10:32:31;;;;;;;20.60;8.30;;;;;;;7.73;82.72;100489.72;1732280;81;21207;-77
2020/12/23 10:34:57;;;;;;;34.25;14.65;;;;;;;7.74;82.71;100487.42;1760453;81;21139;-75
2020/12/23 10:37:25;;;;;;;23.67;9.83;;;;;;;7.79;82.67;100486.46;1743300;81;21170;-74
2020/12/23 10:39:51;;;;;;;24.57;9.65;;;;;;;7.80;82.61;100481.02;1690724;83;21166;-74
2020/12/23 10:42:18;;;;;;;23.65;9.63;;;;;;;7.81;82.62;100480.53;1713033;82;21140;-74
2020/12/23 10:44:44;;;;;;;25.17;9.75;;;;;;;7.78;82.60;100480.31;1699593;83;22122;-74
2020/12/23 10:47:11;;;;;;;21.30;9.05;;;;;;;7.71;82.58;100474.42;1679979;85;21195;-74
2020/12/23 10:49:37;;;;;;;20.85;7.28;;;;;;;7.64;82.57;100472.02;1683356;83;21711;-74
2020/12/23 10:52:03;;;;;;;17.05;6.97;;;;;;;7.62;82.52;100474.00;1715996;83;21663;-74
2020/12/23 10:54:30;;;;;;;19.92;10.18;;;;;;;7.59;82.50;100469.00;1692671;84;21217;-75
2020/12/23 10:56:56;;;;;;;18.17;9.88;;;;;;;7.56;82.50;100458.69;1666710;86;21260;-75
2020/12/23 10:59:23;;;;;;;16.87;8.23;;;;;;;7.60;82.46;100452.09;1669472;85;21215;-77
2020/12/23 11:01:55;;;;;;;28.27;11.12;;;;;;;7.66;82.44;100450.16;1668643;86;21711;-75
2020/12/23 11:04:24;;;;;;;31.87;11.60;;;;;;;7.70;82.43;100448.88;1669633;84;21227;-76
2020/12/23 11:06:51;;;;;;;30.92;12.25;;;;;;;7.77;82.44;100459.25;1668662;84;21156;-76
2020/12/23 11:09:18;;;;;;;41.25;16.05;;;;;;;7.82;82.45;100460.45;1673320;84;22115;-76
2020/12/23 11:11:51;;;;;;;22.48;8.40;;;;;;;7.90;82.43;100449.08;1683012;83;21211;-76
2020/12/23 11:14:18;;;;;;;18.40;6.37;;;;;;;7.95;82.39;100456.11;1690891;83;21161;-75
2020/12/23 11:16:50;;;;;;;31.37;11.53;;;;;;;7.95;82.33;100452.12;1664834;84;21190;-76
2020/12/23 11:19:18;;;;;;;30.08;10.32;;;;;;;7.89;82.25;100450.05;1700482;84;21212;-75
2020/12/23 11:21:45;;;;;;;21.57;7.65;;;;;;;7.86;82.25;100453.02;1693019;84;21255;-75
2020/12/23 11:24:11;;;;;;;23.25;7.22;;;;;;;7.89;82.22;100455.36;1674443;84;21177;-75
2020/12/23 11:26:38;;;;;;;23.07;9.38;;;;;;;7.87;82.21;100454.69;1682092;84;21622;-75
2020/12/23 11:29:04;;;;;;;20.82;8.48;;;;;;;7.85;82.17;100452.66;1701425;84;21597;-76
2020/12/23 11:31:30;;;;;;;15.40;7.12;;;;;;;7.88;82.12;100459.03;1701528;84;21160;-75
2020/12/23 11:33:57;;;;;;;13.18;5.92;;;;;;;7.90;82.09;100450.41;1702303;84;21280;-75